ADDS METAR Data INFO
IDs: Format: Raw Decoded Include TAF

Data at: 2113 UTC 22 Oct 2017

KHLX 222050Z AUTO 00000KT 10SM CLR 19/07 A3030 RMK AO2 T01900067
KHLX 222035Z AUTO 17003KT 10SM CLR 19/06 A3030 RMK AO2 T01920062
KHLX 222015Z AUTO 15004KT 10SM CLR 19/08 A3030 RMK AO2 T01930078
KHLX 221955Z AUTO 00000KT 10SM CLR 20/08 A3030 RMK AO2 T01950075
KHLX 221935Z AUTO 18005KT 10SM CLR 20/07 A3031 RMK AO2 T01960070
KHLX 221915Z AUTO 00000KT 10SM CLR 19/06 A3031 RMK AO2 T01910059
KHLX 221855Z AUTO 16004KT 10SM CLR 20/05 A3031 RMK AO2 T01990054
KHLX 221835Z AUTO 18008KT 10SM CLR 20/06 A3032 RMK AO2 T02000058
KHLX 221815Z AUTO 17005KT 10SM CLR 20/07 A3033 RMK AO2 T02010066
KHLX 221750Z AUTO 00000KT 10SM CLR 19/07 A3034 RMK AO2 T01890068 10196 20116
KHLX 221735Z AUTO 19003KT 10SM CLR 19/07 A3035 RMK AO2 T01890069
KHLX 221715Z AUTO 00000KT 10SM CLR 19/08 A3036 RMK AO2 T01940078
KHLX 221655Z AUTO 19007KT 10SM CLR 19/08 A3036 RMK AO2 T01900079
KHLX 221635Z AUTO 00000KT 10SM CLR 19/08 A3036 RMK AO2 T01930079
KHLX 221615Z AUTO 00000KT 10SM CLR 19/08 A3037 RMK AO2 T01890079
KHLX 221555Z AUTO 18006KT 140V200 10SM CLR 18/08 A3038 RMK AO2 T01830076
KHLX 221535Z AUTO 18008G15KT 150V210 10SM CLR 18/07 A3038 RMK AO2 T01800072
KHLX 221515Z AUTO 18003G14KT 10SM CLR 18/07 A3038 RMK AO2 T01800074
KHLX 221455Z AUTO 00000KT 10SM CLR 18/08 A3038 RMK AO2 T01750080
KHLX 221435Z AUTO 00000KT 10SM CLR 17/09 A3039 RMK AO2 T01710088
KHLX 221415Z AUTO 00000KT 10SM CLR 16/09 A3039 RMK AO2 T01600085
KHLX 221355Z AUTO 00000KT 10SM CLR 15/08 A3039 RMK AO2 T01540081
KHLX 221335Z AUTO 00000KT 10SM CLR 15/08 A3039 RMK AO2 T01450081
KHLX 221315Z AUTO 00000KT 10SM CLR 14/08 A3038 RMK AO2 T01400081
KHLX 221255Z AUTO 00000KT 10SM CLR 14/08 A3038 RMK AO2 T01420077
KHLX 221235Z AUTO 00000KT 10SM CLR 13/08 A3038 RMK AO2 T01320076
KHLX 221215Z AUTO 00000KT 10SM CLR 13/07 A3037 RMK AO2 T01260074
KHLX 221155Z AUTO 00000KT 10SM CLR 12/07 A3036 RMK AO2 T01150073 10128 20108
KHLX 221135Z AUTO 00000KT 10SM CLR 12/07 A3036 RMK AO2 T01180073
KHLX 221115Z AUTO 00000KT 10SM CLR 11/07 A3035 RMK AO2 T01110072
KHLX 221055Z AUTO 00000KT 10SM CLR 11/07 A3035 RMK AO2 T01110073
KHLX 221035Z AUTO 00000KT 10SM CLR 11/07 A3035 RMK AO2 T01130072
KHLX 221015Z AUTO 00000KT 10SM CLR 12/07 A3036 RMK AO2 T01210072
KHLX 220955Z AUTO 00000KT 10SM CLR 12/07 A3036 RMK AO2 T01240072
KHLX 220935Z AUTO 00000KT 10SM CLR 12/07 A3035 RMK AO2 T01190073
KHLX 220915Z AUTO 00000KT 10SM CLR 11/08 A3035 RMK AO2 T01100075
KHLX 220855Z AUTO 00000KT 10SM CLR 12/07 A3035 RMK AO2 T01200073
KHLX 220835Z AUTO 00000KT 10SM CLR 12/08 A3035 RMK AO2 T01200075
KHLX 220815Z AUTO 00000KT 10SM CLR 12/08 A3035 RMK AO2 T01150075
KHLX 220755Z AUTO 00000KT 10SM CLR 13/07 A3035 RMK AO2 T01280073
KHLX 220735Z AUTO 00000KT 10SM CLR 13/07 A3035 RMK AO2 T01250073
KHLX 220715Z AUTO 00000KT 10SM CLR 12/08 A3035 RMK AO2 T01210075
KHLX 220655Z AUTO 00000KT 10SM CLR 12/07 A3035 RMK AO2 T01210074
KHLX 220635Z AUTO 00000KT 10SM CLR 13/08 A3035 RMK AO2 T01270075
KHLX 220615Z AUTO 00000KT 10SM CLR 12/08 A3036 RMK AO2 T01180077
KHLX 220555Z AUTO 00000KT 10SM CLR 12/08 A3036 RMK AO2 T01230075 10161 20123
KHLX 220535Z AUTO 00000KT 10SM CLR 13/07 A3036 RMK AO2 T01290074
KHLX 220515Z AUTO 00000KT 10SM CLR 13/08 A3036 RMK AO2 T01290075
KHLX 220455Z AUTO 00000KT 10SM CLR 13/08 A3037 RMK AO2 T01300075 402190080
KHLX 220435Z AUTO 00000KT 10SM CLR 13/08 A3037 RMK AO2 T01280077
KHLX 220415Z AUTO 00000KT 10SM CLR 14/08 A3037 RMK AO2 T01370076
KHLX 220355Z AUTO 00000KT 10SM CLR 14/08 A3038 RMK AO2 T01370077
KHLX 220335Z AUTO 00000KT 10SM CLR 14/08 A3038 RMK AO2 T01410077
KHLX 220315Z AUTO 00000KT 10SM CLR 15/08 A3038 RMK AO2 T01460075
KHLX 220255Z AUTO 00000KT 10SM CLR 15/08 A3038 RMK AO2 T01520075
KHLX 220235Z AUTO 00000KT 10SM CLR 15/08 A3038 RMK AO2 T01520075
KHLX 220215Z AUTO 00000KT 10SM CLR 15/08 A3038 RMK AO2 T01450075
KHLX 220155Z AUTO 00000KT 10SM CLR 14/07 A3038 RMK AO2 T01400074
KHLX 220135Z AUTO 00000KT 10SM CLR 14/07 A3038 RMK AO2 T01410072
KHLX 220115Z AUTO 00000KT 10SM CLR 15/07 A3038 RMK AO2 T01460070
KHLX 220055Z AUTO 00000KT 10SM CLR 15/07 A3038 RMK AO2 T01450071
KHLX 220035Z AUTO 00000KT 10SM CLR 15/07 A3038 RMK AO2 T01520068
KHLX 220015Z AUTO 00000KT 10SM CLR 16/07 A3038 RMK AO2 T01560067
KHLX 212355Z AUTO 00000KT 10SM CLR 16/07 A3038 RMK AO2 T01620065 10219 20161
KHLX 212335Z AUTO 00000KT 10SM CLR 16/07 A3038 RMK AO2 T01610066
KHLX 212315Z AUTO 00000KT 10SM CLR 17/07 A3037 RMK AO2 T01650066
KHLX 212255Z AUTO 00000KT 10SM CLR 17/07 A3037 RMK AO2 T01670065
KHLX 212235Z AUTO 00000KT 10SM CLR 17/07 A3036 RMK AO2 T01720065
KHLX 212215Z AUTO 00000KT 10SM CLR 18/06 A3036 RMK AO2 T01800063
KHLX 212150Z AUTO 00000KT 10SM CLR 19/06 A3035 RMK AO2 T01850064
KHLX 212135Z AUTO 00000KT 10SM CLR 19/06 A3035 RMK AO2 T01870064
KHLX 212115Z AUTO 00000KT 10SM CLR 19/06 A3035 RMK AO2 T01930063
KHLX 212055Z AUTO 00000KT 10SM CLR 20/06 A3035 RMK AO2 T02020064
KHLX 212035Z AUTO 00000KT 10SM CLR 21/06 A3035 RMK AO2 T02060061
KHLX 212015Z AUTO 00000KT 10SM CLR 21/06 A3034 RMK AO2 T02130064
KHLX 211955Z AUTO 00000KT 10SM CLR 22/06 A3034 RMK AO2 T02160057
KHLX 211935Z AUTO 00000KT 10SM CLR 22/05 A3034 RMK AO2 T02160054
KHLX 211915Z AUTO 00000KT 10SM CLR 21/05 A3034 RMK AO2 T02130050
KHLX 211855Z AUTO 00000KT 10SM CLR 21/06 A3034 RMK AO2 T02110058
KHLX 211835Z AUTO 00000KT 10SM CLR 21/06 A3035 RMK AO2 T02100059
KHLX 211815Z AUTO 00000KT 10SM CLR 21/05 A3035 RMK AO2 T02070053
KHLX 211755Z AUTO 00000KT 10SM CLR 21/05 A3035 RMK AO2 T02110051 10212 20087
KHLX 211735Z AUTO 00000KT 10SM CLR 21/06 A3036 RMK AO2 T02060055
KHLX 211715Z AUTO 00000KT 10SM CLR 20/05 A3037 RMK AO2 T02010052
KHLX 211655Z AUTO 00000KT 10SM CLR 21/06 A3038 RMK AO2 T02050057
KHLX 211635Z AUTO 00000KT 10SM CLR 21/06 A3038 RMK AO2 T02050057
KHLX 211615Z AUTO 00000KT 10SM CLR 20/06 A3038 RMK AO2 T01970055
KHLX 211555Z AUTO 00000KT 10SM CLR 20/05 A3038 RMK AO2 T01960049
KHLX 211535Z AUTO 00000KT 10SM CLR 19/07 A3038 RMK AO2 T01930065
KHLX 211515Z AUTO 00000KT 10SM CLR 19/07 A3038 RMK AO2 T01850066
KHLX 211455Z AUTO 00000KT 10SM CLR 17/08 A3038 RMK AO2 T01740075
KHLX 211435Z AUTO 00000KT 10SM CLR 16/08 A3038 RMK AO2 T01620077
KHLX 211415Z AUTO 00000KT 10SM CLR 15/07 A3038 RMK AO2 T01450074
KHLX 211355Z AUTO 00000KT 10SM CLR 13/08 A3038 RMK AO2 T01290075
KHLX 211335Z AUTO 00000KT 10SM CLR 11/06 A3038 RMK AO2 T01110063
KHLX 211315Z AUTO 00000KT 10SM CLR 10/06 A3038 RMK AO2 T01030055
KHLX 211255Z AUTO 00000KT 10SM CLR 09/05 A3038 RMK AO2 T00910050
KHLX 211235Z AUTO 00000KT 10SM CLR 09/05 A3037 RMK AO2 T00890046
KHLX 211215Z AUTO 00000KT 10SM CLR 09/05 A3036 RMK AO2 T00870046
KHLX 211155Z AUTO 00000KT 10SM CLR 09/05 A3035 RMK AO2 T00900045 10120 20080
KHLX 211135Z AUTO 00000KT 10SM CLR 09/05 A3035 RMK AO2 T00850048
KHLX 211115Z AUTO 00000KT 10SM CLR 08/05 A3034 RMK AO2 T00820050
KHLX 211055Z AUTO 00000KT 10SM CLR 09/05 A3034 RMK AO2 T00890046
KHLX 211035Z AUTO 00000KT 10SM CLR 08/05 A3033 RMK AO2 T00820049
KHLX 211015Z AUTO 00000KT 10SM CLR 09/05 A3033 RMK AO2 T00920050
KHLX 210955Z AUTO 00000KT 10SM CLR 10/05 A3032 RMK AO2 T00960051
KHLX 210935Z AUTO 00000KT 10SM CLR 09/06 A3032 RMK AO2 T00930055
KHLX 210915Z AUTO 00000KT 10SM CLR 10/06 A3031 RMK AO2 T00980055